createdAt,value
2022-08-19T00:00:00.699Z,5.28
2022-08-19T00:05:04.629Z,5.47
2022-08-19T00:10:13.547Z,5.63
2022-08-19T00:15:18.373Z,6.38
2022-08-19T00:20:22.119Z,5.97
2022-08-19T00:25:30.109Z,6.53
2022-08-19T00:35:35.354Z,5.90
2022-08-19T00:40:57.181Z,6.28
2022-08-19T00:46:00.312Z,6.73
2022-08-19T00:51:21.055Z,6.87
2022-08-19T00:56:24.525Z,7.15
2022-08-19T01:01:27.064Z,6.40
2022-08-19T01:06:29.374Z,6.90
2022-08-19T01:11:50.824Z,8.07
2022-08-19T01:16:55.705Z,7.15
2022-08-19T01:22:14.276Z,6.90
2022-08-19T01:27:19.107Z,5.97
2022-08-19T01:32:41.739Z,7.15
2022-08-19T01:37:50.365Z,7.00
2022-08-19T01:43:11.133Z,7.40
2022-08-19T01:48:14.521Z,8.50
2022-08-19T01:53:16.927Z,7.73
2022-08-19T01:58:42.982Z,7.57
2022-08-19T02:03:45.335Z,7.73
2022-08-19T02:08:48.986Z,8.13
2022-08-19T02:14:12.057Z,7.73
2022-08-19T02:19:14.324Z,7.43
2022-08-19T02:24:16.616Z,6.97
2022-08-19T02:29:37.362Z,7.33
2022-08-19T02:34:39.603Z,7.60
2022-08-19T02:39:41.861Z,7.10
2022-08-19T02:44:44.110Z,7.40
2022-08-19T02:49:47.188Z,6.30
2022-08-19T02:55:08.889Z,7.77
2022-08-19T03:00:13.805Z,8.63
2022-08-19T03:05:46.922Z,6.50
2022-08-19T03:10:57.741Z,6.63
2022-08-19T03:16:20.042Z,6.20
2022-08-19T03:21:25.248Z,6.53
2022-08-19T03:26:49.497Z,6.40
2022-08-19T03:31:53.112Z,6.77
2022-08-19T03:36:57.678Z,6.07
2022-08-19T03:42:38.705Z,6.27
2022-08-19T03:47:40.954Z,6.33
2022-08-19T03:52:45.464Z,6.40
2022-08-19T03:57:50.114Z,6.03
2022-08-19T04:02:58.414Z,6.23
2022-08-19T04:08:02.859Z,6.27
2022-08-19T04:13:07.355Z,5.80
2022-08-19T04:18:11.124Z,6.10
2022-08-19T04:23:14.633Z,5.23
2022-08-19T04:28:17.245Z,5.73
2022-08-19T04:33:26.711Z,5.13
2022-08-19T04:38:31.020Z,4.97
2022-08-19T04:43:35.167Z,5.97
2022-08-19T04:48:43.438Z,4.40
2022-08-19T04:53:53.586Z,5.03
2022-08-19T04:58:57.518Z,4.63
2022-08-19T05:04:01.982Z,5.20
2022-08-19T05:09:06.062Z,4.63
2022-08-19T05:14:09.395Z,5.23
2022-08-19T05:19:30.009Z,5.03
2022-08-19T05:24:35.840Z,5.20
2022-08-19T05:29:56.553Z,4.40
2022-08-19T05:34:58.840Z,4.73
2022-08-19T05:40:01.186Z,5.33
2022-08-19T05:45:06.748Z,4.13
2022-08-19T05:50:09.494Z,5.10
2022-08-19T05:55:12.195Z,4.70
2022-08-19T06:00:33.167Z,4.53
2022-08-19T06:05:42.264Z,4.65
2022-08-19T06:10:54.603Z,5.57
2022-08-19T06:15:56.878Z,4.57
2022-08-19T06:21:17.744Z,6.15
2022-08-19T06:26:41.184Z,6.10
2022-08-19T06:31:51.044Z,4.80
2022-08-19T06:36:53.715Z,4.70
2022-08-19T06:42:17.707Z,5.25
2022-08-19T06:47:39.256Z,4.32
2022-08-19T06:52:41.532Z,4.35
2022-08-19T06:57:43.962Z,4.68
2022-08-19T07:02:52.144Z,4.78
2022-08-19T07:08:04.858Z,5.55
2022-08-19T07:13:07.685Z,5.13
2022-08-19T07:18:11.707Z,5.45
2022-08-19T07:23:16.126Z,4.85
2022-08-19T07:28:24.464Z,6.22
2022-08-19T07:33:28.092Z,5.75
2022-08-19T07:38:30.543Z,4.68
2022-08-19T07:43:34.890Z,4.65
2022-08-19T07:48:56.239Z,4.97
2022-08-19T07:54:05.178Z,5.53
2022-08-19T07:59:07.681Z,4.95
2022-08-19T08:04:28.471Z,5.05
2022-08-19T08:09:49.635Z,4.80
2022-08-19T08:14:55.980Z,5.40
2022-08-19T08:19:58.738Z,4.65
2022-08-19T08:25:13.873Z,6.00
2022-08-19T08:30:26.433Z,5.00
2022-08-19T08:35:34.704Z,4.72
2022-08-19T08:40:50.919Z,4.07
2022-08-19T08:46:17.567Z,3.75
2022-08-19T08:52:11.690Z,4.20
2022-08-19T08:57:19.395Z,3.20
2022-08-19T09:02:21.748Z,3.70
2022-08-19T09:07:47.298Z,4.78
2022-08-19T09:13:48.442Z,4.00
2022-08-19T09:19:00.082Z,4.65
2022-08-19T09:24:04.026Z,4.32
2022-08-19T09:29:07.108Z,4.20
2022-08-19T09:34:21.163Z,4.45
2022-08-19T09:39:24.334Z,4.80
2022-08-19T09:44:26.675Z,3.85
2022-08-19T09:49:29.359Z,4.85
2022-08-19T09:54:31.899Z,4.43
2022-08-19T09:59:34.676Z,4.68
2022-08-19T10:04:55.284Z,4.88
2022-08-19T10:09:57.852Z,4.60
2022-08-19T10:15:00.941Z,4.75
2022-08-19T10:20:05.495Z,4.72
2022-08-19T10:25:28.127Z,5.38
2022-08-19T10:30:30.571Z,4.82
2022-08-19T10:35:56.318Z,4.88
2022-08-19T10:40:59.394Z,4.53
2022-08-19T10:46:01.698Z,4.55
2022-08-19T10:51:23.623Z,4.07
2022-08-19T10:56:45.797Z,4.68
2022-08-19T11:01:48.726Z,5.10
2022-08-19T11:06:53.819Z,5.50
2022-08-19T11:11:57.504Z,4.72
2022-08-19T11:17:06.400Z,5.82
2022-08-19T11:22:31.777Z,4.50
2022-08-19T11:27:45.753Z,4.40
2022-08-19T11:32:51.611Z,4.03
2022-08-19T11:37:55.107Z,4.78
2022-08-19T11:42:57.862Z,4.53
2022-08-19T11:48:23.085Z,5.00
2022-08-19T11:53:25.692Z,4.38
2022-08-19T11:58:28.138Z,4.63
2022-08-19T12:03:30.630Z,4.05
2022-08-19T12:08:33.091Z,4.05
2022-08-19T12:13:36.100Z,4.03
2022-08-19T12:18:38.520Z,3.85
2022-08-19T12:23:41.958Z,4.97
2022-08-19T12:28:44.827Z,4.30
2022-08-19T12:33:47.887Z,5.43
2022-08-19T12:38:50.281Z,3.60
2022-08-19T12:43:52.933Z,3.47
2022-08-19T12:48:56.226Z,3.25
2022-08-19T12:53:58.864Z,3.95
2022-08-19T12:59:05.971Z,4.03
2022-08-19T13:04:27.103Z,3.75
2022-08-19T13:09:29.452Z,3.53
2022-08-19T13:14:32.700Z,4.22
2022-08-19T13:19:37.952Z,4.10
2022-08-19T13:24:43.907Z,3.72
2022-08-19T13:30:07.100Z,4.30
2022-08-19T13:35:12.719Z,3.95
2022-08-19T13:40:23.968Z,5.22
2022-08-19T13:45:28.594Z,5.35
2022-08-19T13:50:35.193Z,4.97
2022-08-19T13:55:56.220Z,4.30
2022-08-19T14:01:00.335Z,5.28
2022-08-19T14:06:03.149Z,4.15
2022-08-19T14:11:06.385Z,3.70
2022-08-19T14:16:11.300Z,4.75
2022-08-19T14:21:21.288Z,4.82
2022-08-19T14:26:26.481Z,5.15
2022-08-19T14:31:47.720Z,4.65
2022-08-19T14:36:50.102Z,5.18
2022-08-19T14:41:52.576Z,4.05
2022-08-19T14:46:54.850Z,4.38
2022-08-19T14:51:57.768Z,4.15
2022-08-19T14:57:00.030Z,5.05
2022-08-19T15:02:34.949Z,4.93
2022-08-19T15:07:38.866Z,4.93
2022-08-19T15:12:41.475Z,5.47
2022-08-19T15:17:46.458Z,7.20
2022-08-19T15:22:49.133Z,5.60
2022-08-19T15:27:51.469Z,5.40
2022-08-19T15:32:54.454Z,4.90
2022-08-19T15:37:57.381Z,4.53
2022-08-19T15:43:22.416Z,5.00
2022-08-19T15:48:24.633Z,5.45
2022-08-19T15:53:27.066Z,5.28
2022-08-19T15:58:48.252Z,4.57
2022-08-19T16:04:14.376Z,5.95
2022-08-19T16:09:36.821Z,5.18
2022-08-19T16:14:39.418Z,4.50
2022-08-19T16:19:41.930Z,5.00
2022-08-19T16:24:44.490Z,4.18
2022-08-19T16:29:47.289Z,4.82
2022-08-19T16:34:50.443Z,4.50
2022-08-19T16:39:52.916Z,4.38
2022-08-19T16:44:55.325Z,4.03
2022-08-19T16:50:22.170Z,4.68
2022-08-19T16:55:31.547Z,4.88
2022-08-19T17:00:34.749Z,4.30
2022-08-19T17:05:45.308Z,4.10
2022-08-19T17:11:16.455Z,4.47
2022-08-19T17:16:10.543Z,3.80
2022-08-19T17:21:13.462Z,4.28
2022-08-19T17:26:34.568Z,5.03
2022-08-19T17:31:57.996Z,3.72
2022-08-19T17:37:00.454Z,4.00
2022-08-19T17:42:03.308Z,4.22
2022-08-19T17:47:08.573Z,4.40
2022-08-19T17:52:12.111Z,3.97
2022-08-19T17:57:14.478Z,4.35
2022-08-19T18:02:17.093Z,4.05
2022-08-19T18:07:27.065Z,3.80
2022-08-19T18:12:29.430Z,3.70
2022-08-19T18:17:31.881Z,3.50
2022-08-19T18:22:41.015Z,4.10
2022-08-19T18:27:43.653Z,3.63
2022-08-19T18:33:15.260Z,3.40
2022-08-19T18:38:54.553Z,4.00
2022-08-19T18:44:34.360Z,4.30
2022-08-19T18:49:36.830Z,3.55
2022-08-19T18:54:40.761Z,3.72
2022-08-19T18:59:44.986Z,3.75
2022-08-19T19:04:47.466Z,4.35
2022-08-19T19:09:52.946Z,3.92
2022-08-19T19:15:13.724Z,3.95
2022-08-19T19:20:16.436Z,3.28
2022-08-19T19:25:20.306Z,3.58
2022-08-19T19:30:33.474Z,4.72
2022-08-19T19:35:35.877Z,4.25
2022-08-19T19:40:38.362Z,3.53
2022-08-19T19:45:40.776Z,3.75
2022-08-19T19:50:56.105Z,3.42
2022-08-19T19:56:17.268Z,3.83
2022-08-19T20:01:24.720Z,3.70
2022-08-19T20:06:29.357Z,3.65
2022-08-19T20:11:46.479Z,4.07
2022-08-19T20:16:49.724Z,3.85
2022-08-19T20:21:56.067Z,3.92
2022-08-19T20:27:00.705Z,3.58
2022-08-19T20:32:03.230Z,4.53
2022-08-19T20:37:11.728Z,3.63
2022-08-19T20:47:16.105Z,3.28
2022-08-19T20:52:18.405Z,3.58
2022-08-19T20:57:20.671Z,3.85
2022-08-19T21:02:25.019Z,3.70
2022-08-19T21:07:46.851Z,3.35
2022-08-19T21:12:49.572Z,3.90
2022-08-19T21:17:52.192Z,4.55
2022-08-19T21:22:54.389Z,3.85
2022-08-19T21:28:15.381Z,4.80
2022-08-19T21:33:37.417Z,3.63
2022-08-19T21:38:54.683Z,3.50
2022-08-19T21:43:57.067Z,3.92
2022-08-19T21:48:59.820Z,3.30
2022-08-19T21:54:02.151Z,3.95
2022-08-19T21:59:04.982Z,3.58
2022-08-19T22:04:07.231Z,4.30
2022-08-19T22:09:09.473Z,4.55
2022-08-19T22:14:11.725Z,4.00
2022-08-19T22:19:15.206Z,4.97
2022-08-19T22:24:17.413Z,4.63
2022-08-19T22:29:25.106Z,4.82
2022-08-19T22:34:56.859Z,6.73
2022-08-19T22:40:00.772Z,4.13
2022-08-19T22:45:03.784Z,4.80
2022-08-19T22:50:08.450Z,4.67
2022-08-19T22:55:17.563Z,5.73
2022-08-19T23:00:21.856Z,5.67
2022-08-19T23:05:42.968Z,6.80
2022-08-19T23:10:45.411Z,6.13
2022-08-19T23:15:47.788Z,5.57
2022-08-19T23:20:50.765Z,7.20
2022-08-19T23:25:54.552Z,8.03
2022-08-19T23:30:57.043Z,7.50
2022-08-19T23:36:02.510Z,6.37
2022-08-19T23:41:06.705Z,7.73
2022-08-19T23:46:10.839Z,7.17
2022-08-19T23:51:31.961Z,7.10
2022-08-19T23:56:53.945Z,7.73
